This is the latest recevied weather packets stored in our database for station/object 4S6DRJ-13. If no packets are shown the sender has not sent any weather packets the latest 10 day(s).
| Time | Temp. | Humidity | Pressure | Rain* | Wind** | Luminosity | Snow |
|---|---|---|---|---|---|---|---|
| 1788157494 | 31.11° C | 69% | 1009.3 hPa | 0 mm | 0.89 m/s, 91° | 1127 W/m² | - |
| 1788157433 | 31.11° C | 70% | 1009 hPa | 0 mm | 0.89 m/s, 30° | 1138 W/m² | - |
| 1788157372 | 31.67° C | 69% | 1009 hPa | 0 mm | 0.89 m/s, 301° | 422 W/m² | - |
| 1788157310 | 31.67° C | 68% | 1009.1 hPa | 0 mm | 1.79 m/s, 355° | 627 W/m² | - |
| 1788157250 | 31.67° C | 67% | 1009.2 hPa | 0 mm | 2.68 m/s, 239° | 892 W/m² | - |
| 1788157189 | 32.22° C | 66% | 1009 hPa | 0 mm | 2.24 m/s, 316° | 387 W/m² | - |
| 1788157128 | 32.22° C | 66% | 1009.1 hPa | 0 mm | 2.24 m/s, 254° | 996 W/m² | - |
| 1788157067 | 32.22° C | 66% | 1009.1 hPa | 0 mm | 0.45 m/s, 345° | 417 W/m² | - |
| 1788157007 | 32.22° C | 66% | 1009.2 hPa | 0 mm | 1.79 m/s, 276° | 417 W/m² | - |
| 1788156945 | 31.67° C | 66% | 1009.1 hPa | 0 mm | 0.45 m/s, 189° | 1138 W/m² | - |
| 1788156884 | 31.67° C | 67% | 1009.3 hPa | 0 mm | 2.24 m/s, 323° | 1135 W/m² | - |
| 1788156823 | 31.67° C | 66% | 1009.2 hPa | 0 mm | 1.34 m/s, 309° | 1123 W/m² | - |
| 1788156762 | 31.67° C | 67% | 1009.2 hPa | 0 mm | 1.79 m/s, 41° | 1129 W/m² | - |
| 1788156701 | 31.67° C | 67% | 1009.3 hPa | 0 mm | 1.34 m/s, 309° | 646 W/m² | - |
| 1788156640 | 31.11° C | 69% | 1009.3 hPa | 0 mm | 0.89 m/s, 275° | 1122 W/m² | - |
| 1788156579 | 31.11° C | 70% | 1009.2 hPa | 0 mm | 0.89 m/s, 238° | 498 W/m² | - |
| 1788156518 | 30.56° C | 70% | 1009.2 hPa | 0 mm | 0.89 m/s, 203° | 1125 W/m² | - |
| 1788156457 | 30.56° C | 70% | 1009.3 hPa | 0 mm | 2.68 m/s, 281° | 1125 W/m² | - |
| 1788156396 | 30.56° C | 70% | 1009.3 hPa | 0 mm | 1.79 m/s, 323° | 470 W/m² | - |
| 1788156352 | 31.11° C | 69% | 1009.2 hPa | 0 mm | 2.24 m/s, 17° | 1131 W/m² | - |
| 1788156274 | 31.11° C | 67% | 1009.1 hPa | 0 mm | 2.68 m/s, 302° | 1128 W/m² | - |
| 1788156213 | 31.67° C | 66% | 1009.3 hPa | 0 mm | 4.47 m/s, 302° | 891 W/m² | - |
| 1788156152 | 31.67° C | 65% | 1009.2 hPa | 0 mm | 4.02 m/s, 330° | 1129 W/m² | - |
| 1788156091 | 31.67° C | 67% | 1009.2 hPa | 0 mm | 2.24 m/s, 331° | 1121 W/m² | - |
| 1788156030 | 31.67° C | 68% | 1009.4 hPa | 0 mm | 1.79 m/s, 223° | 1118 W/m² | - |
* Rain latest hour (hover to see other rain measurements)
** Current wind speed in m/s (hover to see current wind gust speed)